createdAt,value
2023-06-04T00:00:32.767Z,6.00
2023-06-04T00:02:59.742Z,11.00
2023-06-04T00:05:26.613Z,5.40
2023-06-04T00:07:53.668Z,7.20
2023-06-04T00:10:20.400Z,7.10
2023-06-04T00:12:47.342Z,5.30
2023-06-04T00:15:17.500Z,5.50
2023-06-04T00:17:44.738Z,5.20
2023-06-04T00:20:12.445Z,5.90
2023-06-04T00:22:39.645Z,5.60
2023-06-04T00:25:06.583Z,5.10
2023-06-04T00:27:33.336Z,5.50
2023-06-04T00:30:00.251Z,4.60
2023-06-04T00:32:27.089Z,5.10
2023-06-04T00:34:58.960Z,5.60
2023-06-04T00:37:26.526Z,4.10
2023-06-04T00:39:53.309Z,4.60
2023-06-04T00:42:20.200Z,4.20
2023-06-04T00:44:46.961Z,4.90
2023-06-04T00:47:15.535Z,6.60
2023-06-04T00:49:43.025Z,5.90
2023-06-04T00:52:11.065Z,5.80
2023-06-04T00:54:39.426Z,5.10
2023-06-04T00:57:06.798Z,4.40
2023-06-04T00:59:35.353Z,4.30
2023-06-04T01:02:13.555Z,8.80
2023-06-04T01:04:50.399Z,5.30
2023-06-04T01:07:17.767Z,4.50
2023-06-04T01:09:47.824Z,5.50
2023-06-04T01:12:14.952Z,7.60
2023-06-04T01:14:42.395Z,4.70
2023-06-04T01:17:38.994Z,5.20
2023-06-04T01:20:13.052Z,5.00
2023-06-04T01:22:52.753Z,5.50
2023-06-04T01:25:27.535Z,4.20
2023-06-04T01:27:58.338Z,3.70
2023-06-04T01:30:31.717Z,5.50
2023-06-04T01:33:00.337Z,3.80
2023-06-04T01:35:29.315Z,3.90
2023-06-04T01:37:57.035Z,3.70
2023-06-04T01:40:24.946Z,4.50
2023-06-04T01:42:51.979Z,3.50
2023-06-04T01:45:19.018Z,3.70
2023-06-04T01:47:45.704Z,7.10
2023-06-04T01:50:12.581Z,4.20
2023-06-04T01:52:42.526Z,3.90
2023-06-04T01:55:15.777Z,4.90
2023-06-04T01:57:45.273Z,5.90
2023-06-04T02:00:13.313Z,4.70
2023-06-04T02:02:43.594Z,5.50
2023-06-04T02:09:23.105Z,4.50
2023-06-04T02:11:49.827Z,5.60
2023-06-04T02:14:16.486Z,4.70
2023-06-04T02:16:43.259Z,5.40
2023-06-04T02:19:09.990Z,5.70
2023-06-04T02:21:37.164Z,4.70
2023-06-04T02:24:04.143Z,5.80
2023-06-04T02:26:30.875Z,4.80
2023-06-04T02:28:57.640Z,5.00
2023-06-04T02:31:24.379Z,4.50
2023-06-04T02:33:51.090Z,5.80
2023-06-04T02:36:18.561Z,5.00
2023-06-04T02:38:45.462Z,5.60
2023-06-04T02:41:12.678Z,5.40
2023-06-04T02:43:39.413Z,5.20
2023-06-04T02:46:07.419Z,6.50
2023-06-04T02:48:34.283Z,5.40
2023-06-04T02:51:01.129Z,6.00
2023-06-04T02:53:27.935Z,6.10
2023-06-04T02:55:54.930Z,5.80
2023-06-04T02:58:22.900Z,5.20
2023-06-04T03:00:53.962Z,6.40
2023-06-04T03:03:20.688Z,4.80
2023-06-04T03:05:47.616Z,5.50
2023-06-04T03:08:14.399Z,5.30
2023-06-04T03:10:41.314Z,5.40
2023-06-04T03:13:08.076Z,5.50
2023-06-04T03:15:34.817Z,5.10
2023-06-04T03:18:01.788Z,5.10
2023-06-04T03:20:28.506Z,4.80
2023-06-04T03:22:55.314Z,5.20
2023-06-04T03:25:23.205Z,5.10
2023-06-04T03:27:51.002Z,6.10
2023-06-04T03:30:17.795Z,5.50
2023-06-04T03:32:56.290Z,5.80
2023-06-04T03:35:23.618Z,7.40
2023-06-04T03:37:50.424Z,7.30
2023-06-04T03:40:17.348Z,6.30
2023-06-04T03:42:45.980Z,6.70
2023-06-04T03:45:14.021Z,6.60
2023-06-04T03:47:41.214Z,5.90
2023-06-04T03:50:09.523Z,6.20
2023-06-04T03:52:37.048Z,6.30
2023-06-04T03:55:05.030Z,6.80
2023-06-04T03:57:33.832Z,6.50
2023-06-04T04:00:01.349Z,6.20
2023-06-04T04:02:28.437Z,6.00
2023-06-04T04:04:58.252Z,6.50
2023-06-04T04:07:25.572Z,6.50
2023-06-04T04:09:53.648Z,6.30
2023-06-04T04:12:20.867Z,6.10
2023-06-04T04:14:48.570Z,7.00
2023-06-04T04:17:16.381Z,6.70
2023-06-04T04:19:43.938Z,6.60
2023-06-04T04:22:14.207Z,7.50
2023-06-04T04:24:41.310Z,7.80
2023-06-04T04:27:12.263Z,6.80
2023-06-04T04:29:40.542Z,6.50
2023-06-04T04:32:11.731Z,6.70
2023-06-04T04:34:55.927Z,8.10
2023-06-04T04:37:31.558Z,6.80
2023-06-04T04:39:58.539Z,6.70
2023-06-04T04:42:26.260Z,6.70
2023-06-04T04:44:53.745Z,6.80
2023-06-04T04:47:22.561Z,7.10
2023-06-04T04:49:51.041Z,6.80
2023-06-04T04:52:18.224Z,7.00
2023-06-04T04:54:45.575Z,7.20
2023-06-04T04:57:14.123Z,7.30
2023-06-04T04:59:43.707Z,7.70
2023-06-04T05:02:10.807Z,7.10
2023-06-04T05:04:38.160Z,7.70
2023-06-04T05:07:05.409Z,7.60
2023-06-04T05:09:32.337Z,7.20
2023-06-04T05:11:59.804Z,9.50
2023-06-04T05:14:26.809Z,9.30
2023-06-04T05:16:53.873Z,6.80
2023-06-04T05:19:20.989Z,7.00
2023-06-04T05:21:49.926Z,7.00
2023-06-04T05:24:17.553Z,7.30
2023-06-04T05:26:45.405Z,8.80
2023-06-04T05:29:16.499Z,7.00
2023-06-04T05:31:44.204Z,6.10
2023-06-04T05:34:17.718Z,8.00
2023-06-04T05:36:44.930Z,9.50
2023-06-04T05:39:12.036Z,7.40
2023-06-04T05:41:48.105Z,6.30
2023-06-04T05:44:15.353Z,8.40
2023-06-04T05:46:42.918Z,7.60
2023-06-04T05:49:11.265Z,7.60
2023-06-04T05:51:38.204Z,7.40
2023-06-04T05:54:05.022Z,13.70
2023-06-04T05:56:32.391Z,8.30
2023-06-04T05:58:59.911Z,7.10
2023-06-04T06:01:27.472Z,7.00
2023-06-04T06:03:54.649Z,6.10
2023-06-04T06:06:22.777Z,6.70
2023-06-04T06:13:14.632Z,6.50
2023-06-04T06:15:41.698Z,6.50
2023-06-04T06:18:08.633Z,7.50
2023-06-04T06:20:35.441Z,7.50
2023-06-04T06:31:39.527Z,7.80
2023-06-04T06:34:06.624Z,7.00
2023-06-04T06:36:33.972Z,6.90
2023-06-04T06:39:01.175Z,7.00
2023-06-04T06:41:27.994Z,8.60
2023-06-04T06:43:54.819Z,7.20
2023-06-04T06:46:22.117Z,7.90
2023-06-04T06:48:49.760Z,7.10
2023-06-04T06:51:16.702Z,6.50
2023-06-04T06:53:44.230Z,8.80
2023-06-04T06:56:11.112Z,7.00
2023-06-04T06:58:37.833Z,6.80
2023-06-04T07:01:04.718Z,7.20
2023-06-04T07:03:32.489Z,6.50
2023-06-04T07:05:59.559Z,7.80
2023-06-04T07:08:26.263Z,10.40
2023-06-04T07:10:53.021Z,8.30
2023-06-04T07:13:19.710Z,8.60
2023-06-04T07:15:46.545Z,6.70
2023-06-04T07:18:13.488Z,7.80
2023-06-04T07:20:40.194Z,9.10
2023-06-04T07:23:08.090Z,9.00
2023-06-04T07:25:35.511Z,7.60
2023-06-04T07:28:05.056Z,8.70
2023-06-04T07:30:35.389Z,8.20
2023-06-04T07:33:02.121Z,9.30
2023-06-04T07:35:29.218Z,8.20
2023-06-04T07:37:56.221Z,8.70
2023-06-04T07:44:49.588Z,6.80
2023-06-04T07:51:38.320Z,8.20
2023-06-04T07:54:05.236Z,8.60
2023-06-04T07:56:32.011Z,8.50
2023-06-04T07:58:58.756Z,8.20
2023-06-04T08:01:27.570Z,7.90
2023-06-04T08:03:54.720Z,8.20
2023-06-04T08:06:21.631Z,8.70
2023-06-04T08:08:49.688Z,9.90
2023-06-04T08:11:17.092Z,9.90
2023-06-04T08:13:43.869Z,8.30
2023-06-04T08:16:12.062Z,8.00
2023-06-04T08:18:42.352Z,9.30
2023-06-04T08:21:13.115Z,8.90
2023-06-04T08:23:40.109Z,8.10
2023-06-04T08:26:09.545Z,9.60
2023-06-04T08:28:36.882Z,8.20
2023-06-04T08:31:03.653Z,7.00
2023-06-04T08:33:30.506Z,9.20
2023-06-04T08:35:57.324Z,7.00
2023-06-04T08:38:24.874Z,7.80
2023-06-04T08:40:54.418Z,8.50
2023-06-04T08:43:21.169Z,7.80
2023-06-04T08:45:51.346Z,7.20
2023-06-04T08:48:19.635Z,7.50
2023-06-04T08:50:48.945Z,7.70
2023-06-04T08:53:16.979Z,8.10
2023-06-04T08:55:44.256Z,6.80
2023-06-04T08:58:14.092Z,7.60
2023-06-04T09:00:40.947Z,8.20
2023-06-04T09:03:08.477Z,7.80
2023-06-04T09:05:36.439Z,8.40
2023-06-04T09:08:05.827Z,8.90
2023-06-04T09:10:33.579Z,8.10
2023-06-04T09:13:04.590Z,5.80
2023-06-04T09:15:31.266Z,7.20
2023-06-04T09:17:57.978Z,9.70
2023-06-04T09:20:26.259Z,8.10
2023-06-04T09:22:52.936Z,7.80
2023-06-04T09:25:28.472Z,6.80
2023-06-04T09:27:58.875Z,7.90
2023-06-04T09:30:25.783Z,8.70
2023-06-04T09:32:54.684Z,7.40
2023-06-04T09:35:21.885Z,6.90
2023-06-04T09:37:57.102Z,6.80
2023-06-04T09:40:25.200Z,6.50
2023-06-04T09:42:56.241Z,7.40
2023-06-04T09:45:36.604Z,6.40
2023-06-04T09:48:09.067Z,5.90
2023-06-04T09:50:40.471Z,7.00
2023-06-04T09:53:23.314Z,6.40
2023-06-04T09:56:01.054Z,6.70
2023-06-04T09:58:29.697Z,5.90
2023-06-04T10:01:01.462Z,5.50
2023-06-04T10:03:34.189Z,5.20
2023-06-04T10:06:05.647Z,5.30
2023-06-04T10:08:35.231Z,6.60
2023-06-04T10:11:03.934Z,6.80
2023-06-04T10:13:32.625Z,4.60
2023-06-04T10:16:00.698Z,4.40
2023-06-04T10:18:31.961Z,4.60
2023-06-04T10:20:59.294Z,5.10
2023-06-04T10:27:47.769Z,6.30
2023-06-04T10:30:14.609Z,5.00
2023-06-04T10:32:42.060Z,5.40
2023-06-04T10:35:09.385Z,6.10
2023-06-04T10:37:36.391Z,5.30
2023-06-04T10:40:06.117Z,5.20
2023-06-04T10:42:43.971Z,4.70
2023-06-04T10:45:12.183Z,5.00
2023-06-04T10:47:42.211Z,4.80
2023-06-04T10:50:14.850Z,4.40
2023-06-04T10:52:56.537Z,6.10
2023-06-04T10:55:23.360Z,5.80
2023-06-04T10:58:09.222Z,6.10
2023-06-04T11:00:37.423Z,5.00
2023-06-04T11:03:09.813Z,4.90
2023-06-04T11:05:49.207Z,4.30
2023-06-04T11:08:27.261Z,4.30
2023-06-04T11:10:54.006Z,4.40
2023-06-04T11:13:26.980Z,5.10
2023-06-04T11:15:53.865Z,4.50
2023-06-04T11:18:22.996Z,5.30
2023-06-04T11:20:51.823Z,3.90
2023-06-04T11:23:19.039Z,5.40
2023-06-04T11:25:46.880Z,4.40
2023-06-04T11:28:19.496Z,4.80
2023-06-04T11:31:07.418Z,4.30
2023-06-04T11:33:46.429Z,5.00
2023-06-04T11:36:30.409Z,5.00
2023-06-04T11:39:07.119Z,3.80
2023-06-04T11:41:37.452Z,4.10
2023-06-04T11:44:08.501Z,5.50
2023-06-04T11:50:44.824Z,5.80
2023-06-04T11:53:11.605Z,6.70
2023-06-04T11:55:40.222Z,5.90
2023-06-04T11:58:07.124Z,4.70
2023-06-04T12:00:34.018Z,6.50
2023-06-04T12:03:01.051Z,4.50
2023-06-04T12:05:32.832Z,5.60
2023-06-04T12:08:12.215Z,5.30
2023-06-04T12:10:43.806Z,4.30
2023-06-04T12:13:11.471Z,4.70
2023-06-04T12:15:38.324Z,6.20
2023-06-04T12:18:08.090Z,4.70
2023-06-04T12:20:37.363Z,4.60
2023-06-04T12:23:05.937Z,5.90
2023-06-04T12:25:35.464Z,4.60
2023-06-04T12:28:04.156Z,4.50
2023-06-04T12:30:38.819Z,5.10
2023-06-04T12:33:05.845Z,5.40
2023-06-04T12:35:32.859Z,5.20
2023-06-04T12:37:59.874Z,5.30
2023-06-04T12:44:53.169Z,5.40
2023-06-04T12:47:22.374Z,4.80
2023-06-04T12:49:49.447Z,6.10
2023-06-04T12:52:18.587Z,3.90
2023-06-04T12:54:45.715Z,6.50
2023-06-04T12:57:12.510Z,5.30
2023-06-04T12:59:39.235Z,4.90
2023-06-04T13:02:06.892Z,5.80
2023-06-04T13:04:33.692Z,4.60
2023-06-04T13:07:01.123Z,4.90
2023-06-04T13:13:48.187Z,4.90
2023-06-04T13:16:15.478Z,5.00
2023-06-04T13:18:42.230Z,5.40
2023-06-04T13:25:33.721Z,5.40
2023-06-04T13:28:01.572Z,5.20
2023-06-04T13:34:56.181Z,4.60
2023-06-04T13:41:51.037Z,4.70
2023-06-04T13:48:31.364Z,4.80
2023-06-04T13:50:58.122Z,5.70
2023-06-04T13:53:24.818Z,5.20
2023-06-04T13:55:58.880Z,4.40
2023-06-04T13:58:28.862Z,4.60
2023-06-04T14:00:55.787Z,6.50
2023-06-04T14:03:22.865Z,5.20
2023-06-04T14:05:50.077Z,5.40
2023-06-04T14:08:17.121Z,5.40
2023-06-04T14:10:44.154Z,4.60
2023-06-04T14:13:11.119Z,5.60
2023-06-04T14:15:38.642Z,5.10
2023-06-04T14:18:06.229Z,5.20
2023-06-04T14:20:33.162Z,5.30
2023-06-04T14:23:00.891Z,7.40
2023-06-04T14:34:37.048Z,5.40
2023-06-04T14:37:03.849Z,5.80
2023-06-04T14:39:30.611Z,7.40
2023-06-04T14:41:57.313Z,4.90
2023-06-04T14:44:24.107Z,5.40
2023-06-04T14:46:52.072Z,5.40
2023-06-04T14:49:19.347Z,6.40
2023-06-04T14:51:46.674Z,6.00
2023-06-04T14:54:14.354Z,5.50
2023-06-04T14:56:41.120Z,4.90
2023-06-04T14:59:10.466Z,5.00
2023-06-04T15:01:38.127Z,5.10
2023-06-04T15:04:06.067Z,6.00
2023-06-04T15:06:33.202Z,7.30
2023-06-04T15:09:00.328Z,6.50
2023-06-04T15:11:27.692Z,6.30
2023-06-04T15:13:54.919Z,5.10
2023-06-04T15:16:40.539Z,6.00
2023-06-04T15:19:07.650Z,5.60
2023-06-04T15:21:34.509Z,5.30
2023-06-04T15:24:01.391Z,5.50
2023-06-04T15:26:28.379Z,5.70
2023-06-04T15:28:57.668Z,5.70
2023-06-04T15:31:24.729Z,5.20
2023-06-04T15:33:51.850Z,7.20
2023-06-04T15:36:18.653Z,5.50
2023-06-04T15:38:45.602Z,6.00
2023-06-04T15:41:12.514Z,6.90
2023-06-04T15:43:39.188Z,6.20
2023-06-04T15:46:06.294Z,5.10
2023-06-04T15:52:40.308Z,5.90
2023-06-04T15:55:07.161Z,5.70
2023-06-04T15:57:34.007Z,8.00
2023-06-04T16:00:00.785Z,5.50
2023-06-04T16:02:27.647Z,5.30
2023-06-04T16:04:54.391Z,6.10
2023-06-04T16:11:38.198Z,7.00
2023-06-04T16:14:06.040Z,6.30
2023-06-04T16:16:33.627Z,6.90
2023-06-04T16:19:00.450Z,5.90
2023-06-04T16:21:27.325Z,5.90
2023-06-04T16:28:14.082Z,7.70
2023-06-04T16:30:41.430Z,7.20
2023-06-04T16:33:08.435Z,5.60
2023-06-04T16:35:35.300Z,6.50
2023-06-04T16:38:02.122Z,5.80
2023-06-04T16:40:28.860Z,6.20
2023-06-04T16:42:55.954Z,7.70
2023-06-04T16:45:23.033Z,9.00
2023-06-04T16:47:50.253Z,5.90
2023-06-04T16:50:16.992Z,6.90
2023-06-04T16:52:43.712Z,6.90
2023-06-04T16:55:10.717Z,6.10
2023-06-04T16:57:38.937Z,6.90
2023-06-04T17:00:17.317Z,7.10
2023-06-04T17:07:19.373Z,8.00
2023-06-04T17:14:00.002Z,7.30
2023-06-04T17:16:26.897Z,6.10
2023-06-04T17:18:53.618Z,5.90
2023-06-04T17:21:20.435Z,7.00
2023-06-04T17:23:49.361Z,6.90
2023-06-04T17:26:16.410Z,6.10
2023-06-04T17:28:43.334Z,6.40
2023-06-04T17:35:36.435Z,7.90
2023-06-04T17:38:03.257Z,11.00
2023-06-04T17:40:29.922Z,7.70
2023-06-04T17:42:56.683Z,9.50
2023-06-04T17:45:23.606Z,8.50
2023-06-04T17:47:50.533Z,9.70
2023-06-04T17:50:17.325Z,9.50
2023-06-04T17:52:48.100Z,10.10
2023-06-04T17:55:16.103Z,10.30
2023-06-04T17:57:43.175Z,9.90
2023-06-04T18:00:10.936Z,11.90
2023-06-04T18:02:40.459Z,8.80
2023-06-04T18:05:08.837Z,8.70
2023-06-04T18:07:36.458Z,7.40
2023-06-04T18:10:03.498Z,5.70
2023-06-04T18:12:32.774Z,3.20
2023-06-04T18:15:01.220Z,6.40
2023-06-04T18:21:48.534Z,2.80
2023-06-04T18:30:56.722Z,4.70
2023-06-04T18:37:30.646Z,4.50
2023-06-04T18:39:57.373Z,3.00
2023-06-04T18:42:30.615Z,4.40
2023-06-04T18:44:58.329Z,3.00
2023-06-04T18:47:25.466Z,3.50
2023-06-04T18:49:52.434Z,3.30
2023-06-04T18:52:19.337Z,2.50
2023-06-04T18:54:47.658Z,3.80
2023-06-04T18:57:15.621Z,5.50
2023-06-04T18:59:42.463Z,4.60
2023-06-04T19:02:09.907Z,4.60
2023-06-04T19:08:58.595Z,6.00
2023-06-04T19:15:38.933Z,4.20
2023-06-04T19:18:08.632Z,3.40
2023-06-04T19:20:36.101Z,4.50
2023-06-04T19:23:03.115Z,5.60
2023-06-04T19:25:30.356Z,7.60
2023-06-04T19:27:57.437Z,7.60
2023-06-04T19:30:26.777Z,4.10
2023-06-04T19:32:54.615Z,5.00
2023-06-04T19:35:23.255Z,5.00
2023-06-04T19:37:50.346Z,6.00
2023-06-04T19:44:27.634Z,4.10
2023-06-04T19:51:16.807Z,3.40
2023-06-04T19:53:43.650Z,3.50
2023-06-04T19:56:10.698Z,4.90
2023-06-04T19:58:37.711Z,7.00
2023-06-04T20:01:05.187Z,3.70
2023-06-04T20:03:33.586Z,3.50
2023-06-04T20:06:04.993Z,5.20
2023-06-04T20:08:33.020Z,5.60
2023-06-04T20:11:00.309Z,3.40
2023-06-04T20:13:27.370Z,5.80
2023-06-04T20:15:54.312Z,4.60
2023-06-04T20:18:22.980Z,5.90
2023-06-04T20:20:53.240Z,5.00
2023-06-04T20:23:20.297Z,4.30
2023-06-04T20:30:00.798Z,6.00
2023-06-04T20:32:27.669Z,5.20
2023-06-04T20:34:54.385Z,3.80
2023-06-04T20:37:23.335Z,4.40
2023-06-04T20:39:50.322Z,3.60
2023-06-04T20:42:17.222Z,4.20
2023-06-04T20:44:44.009Z,4.20
2023-06-04T20:51:24.863Z,3.50
2023-06-04T20:53:51.991Z,2.70
2023-06-04T21:00:32.763Z,3.90
2023-06-04T21:02:59.546Z,5.70
2023-06-04T21:09:40.396Z,3.20
2023-06-04T21:16:27.768Z,4.10
2023-06-04T21:18:54.657Z,3.90
2023-06-04T21:21:21.778Z,4.10
2023-06-04T21:23:48.592Z,3.20
2023-06-04T21:26:15.316Z,3.70
2023-06-04T21:28:41.965Z,3.30
2023-06-04T21:31:09.032Z,4.00
2023-06-04T21:33:35.959Z,4.60
2023-06-04T21:36:02.693Z,4.90
2023-06-04T21:38:29.431Z,3.80
2023-06-04T21:40:56.181Z,4.20
2023-06-04T21:43:23.225Z,4.80
2023-06-04T21:45:50.596Z,3.30
2023-06-04T21:48:17.355Z,4.40
2023-06-04T21:50:44.112Z,3.90
2023-06-04T21:53:10.796Z,3.50
2023-06-04T21:55:37.523Z,4.20
2023-06-04T21:58:04.887Z,3.30
2023-06-04T22:00:31.757Z,3.60
2023-06-04T22:02:58.993Z,4.10
2023-06-04T22:05:26.022Z,3.50
2023-06-04T22:07:52.700Z,3.40
2023-06-04T22:10:19.438Z,3.50
2023-06-04T22:12:46.445Z,3.90
2023-06-04T22:15:13.729Z,4.70
2023-06-04T22:17:41.218Z,4.70
2023-06-04T22:20:08.446Z,4.00
2023-06-04T22:22:36.266Z,4.00
2023-06-04T22:25:03.049Z,3.20
2023-06-04T22:27:29.765Z,4.70
2023-06-04T22:29:56.543Z,3.20
2023-06-04T22:32:23.586Z,4.90
2023-06-04T22:34:50.864Z,4.10
2023-06-04T22:37:17.665Z,4.20
2023-06-04T22:39:44.362Z,3.90
2023-06-04T22:42:11.217Z,5.90
2023-06-04T22:44:38.233Z,3.90
2023-06-04T22:47:05.379Z,3.50
2023-06-04T22:49:32.285Z,3.20
2023-06-04T22:51:59.223Z,3.80
2023-06-04T22:54:26.184Z,3.80
2023-06-04T22:56:52.896Z,3.40
2023-06-04T22:59:19.671Z,4.40
2023-06-04T23:01:46.526Z,4.60
2023-06-04T23:04:13.610Z,7.60
2023-06-04T23:06:40.514Z,4.00
2023-06-04T23:09:09.853Z,4.00
2023-06-04T23:11:36.635Z,5.90
2023-06-04T23:14:03.316Z,4.10
2023-06-04T23:16:30.107Z,4.70
2023-06-04T23:18:57.262Z,5.10
2023-06-04T23:21:24.177Z,5.60
2023-06-04T23:23:51.544Z,4.90
2023-06-04T23:26:18.461Z,4.50
2023-06-04T23:28:45.233Z,7.00
2023-06-04T23:31:11.900Z,5.00
2023-06-04T23:33:38.793Z,6.10
2023-06-04T23:36:05.971Z,5.10
2023-06-04T23:38:32.765Z,5.80
2023-06-04T23:40:59.500Z,7.00
2023-06-04T23:43:26.177Z,5.50
2023-06-04T23:45:52.976Z,6.50
2023-06-04T23:48:19.796Z,4.60
2023-06-04T23:50:46.684Z,8.00
2023-06-04T23:53:13.431Z,5.60
2023-06-04T23:55:40.770Z,5.40
2023-06-04T23:58:07.587Z,5.40
